createdAt,value
2022-09-17T00:12:20.176Z,0.20
2022-09-17T00:26:20.182Z,0.30
2022-09-17T00:40:20.275Z,0.30
2022-09-17T00:54:20.256Z,0.20
2022-09-17T01:08:20.252Z,0.30
2022-09-17T01:22:20.278Z,0.20
2022-09-17T01:36:20.239Z,0.30
2022-09-17T01:50:20.340Z,0.20
2022-09-17T02:04:20.295Z,0.30
2022-09-17T02:18:20.264Z,0.30
2022-09-17T02:32:20.308Z,0.10
2022-09-17T02:46:20.300Z,0.20
2022-09-17T03:00:20.276Z,0.20
2022-09-17T03:14:20.287Z,0.10
2022-09-17T03:28:20.290Z,0.10
2022-09-17T03:42:20.328Z,0.20
2022-09-17T03:56:20.302Z,0.10
2022-09-17T04:10:20.294Z,0.10
2022-09-17T04:24:20.311Z,0.10
2022-09-17T04:38:20.306Z,0.10
2022-09-17T04:52:20.328Z,0.20
2022-09-17T05:07:20.330Z,0.10
2022-09-17T05:22:21.534Z,0.10
2022-09-17T05:37:20.494Z,0.10
2022-09-17T05:52:20.535Z,0.10
2022-09-17T06:07:20.558Z,0.20
2022-09-17T06:22:20.584Z,0.90
2022-09-17T06:37:20.587Z,1.50
2022-09-17T06:52:20.776Z,1.50
2022-09-17T07:07:20.742Z,1.50
2022-09-17T07:22:20.730Z,1.40
2022-09-17T07:37:20.761Z,1.30
2022-09-17T07:52:20.735Z,1.00
2022-09-17T08:07:20.777Z,1.10
2022-09-17T08:22:20.997Z,0.80
2022-09-17T08:37:20.968Z,0.80
2022-09-17T08:52:20.950Z,0.90
2022-09-17T09:07:20.973Z,0.60
2022-09-17T09:22:20.988Z,0.70
2022-09-17T09:37:21.016Z,0.60
2022-09-17T09:52:21.015Z,0.60
2022-09-17T10:07:21.253Z,0.50
2022-09-17T10:22:21.228Z,0.50
2022-09-17T10:37:21.289Z,0.60
2022-09-17T10:52:21.366Z,0.50
2022-09-17T11:07:21.259Z,0.50
2022-09-17T11:22:21.569Z,0.40
2022-09-17T11:37:21.325Z,0.50
2022-09-17T11:52:21.206Z,0.50
2022-09-17T12:07:21.439Z,0.50
2022-09-17T12:23:21.386Z,0.40
2022-09-17T12:38:21.218Z,0.50
2022-09-17T12:53:21.228Z,0.80
2022-09-17T13:09:21.208Z,0.50
2022-09-17T13:24:21.234Z,0.70
2022-09-17T13:39:21.255Z,0.60
2022-09-17T13:54:21.240Z,0.50
2022-09-17T14:09:21.309Z,0.50
2022-09-17T14:24:21.278Z,0.50
2022-09-17T14:39:21.306Z,0.30
2022-09-17T14:54:21.317Z,0.30
2022-09-17T15:09:21.286Z,0.40
2022-09-17T15:24:21.317Z,0.40
2022-09-17T15:40:21.375Z,0.30
2022-09-17T15:55:21.331Z,0.30
2022-09-17T16:10:21.336Z,0.30
2022-09-17T16:25:21.358Z,0.70
2022-09-17T16:40:21.445Z,0.80
2022-09-17T16:55:21.431Z,0.80
2022-09-17T17:10:21.431Z,0.80
2022-09-17T17:25:21.452Z,0.90
2022-09-17T17:41:21.476Z,0.90
2022-09-17T17:56:21.511Z,0.80
2022-09-17T18:10:21.580Z,1.60
2022-09-17T18:24:21.613Z,1.30
2022-09-17T18:38:21.610Z,1.30
2022-09-17T18:52:21.664Z,1.00
2022-09-17T19:06:21.689Z,1.00
2022-09-17T19:20:21.734Z,1.00
2022-09-17T19:34:21.759Z,0.90
2022-09-17T19:48:25.147Z,0.90
2022-09-17T20:02:21.874Z,0.90
2022-09-17T20:16:21.938Z,0.60
2022-09-17T20:30:21.912Z,0.70
2022-09-17T20:44:21.901Z,0.80
2022-09-17T20:58:21.958Z,0.70
2022-09-17T21:12:25.518Z,0.70
2022-09-17T21:26:21.930Z,0.60
2022-09-17T21:40:22.024Z,0.60
2022-09-17T21:54:22.045Z,0.60
2022-09-17T22:08:22.062Z,0.60
2022-09-17T22:22:22.086Z,0.45
2022-09-17T22:36:22.108Z,0.50
2022-09-17T22:50:22.132Z,0.40
2022-09-17T23:04:22.098Z,0.40
2022-09-17T23:18:22.241Z,0.40
2022-09-17T23:32:22.276Z,0.40
2022-09-17T23:46:22.338Z,0.30
